Time;durP1;ratioP1;P1;durP2;ratioP2;P2;SDS_P1;SDS_P2;PMS_P1;PMS_P2;Temp;Humidity;BMP_temperature;BMP_pressure;BME280_temperature;BME280_humidity;BME280_pressure;Samples;Min_cycle;Max_cycle;Signal;HPM_P1;HPM_P2
2022/04/12 00:00:27;;;;;;;14.15;9.38;;;7.70;99.90;;;;;;5036742;28;20033;-79
2022/04/12 00:02:54;;;;;;;10.10;8.18;;;7.70;99.90;;;;;;5020188;28;20443;-79
2022/04/12 00:05:20;;;;;;;15.30;8.10;;;7.60;99.90;;;;;;5036894;28;20048;-78
2022/04/12 00:07:46;;;;;;;14.43;9.05;;;7.60;99.90;;;;;;5039633;28;20048;-79
2022/04/12 00:10:13;;;;;;;13.20;9.90;;;7.60;99.90;;;;;;5057707;28;20032;-78
2022/04/12 00:12:39;;;;;;;17.23;9.13;;;7.60;99.90;;;;;;5040015;28;20033;-79
2022/04/12 00:15:06;;;;;;;13.00;8.75;;;7.60;99.90;;;;;;5023604;28;20045;-79
2022/04/12 00:20:17;;;;;;;13.43;9.00;;;7.60;99.90;;;;;;5057051;28;20385;-79
2022/04/12 00:22:43;;;;;;;13.60;9.90;;;7.50;99.90;;;;;;5040015;28;20121;-78
2022/04/12 00:25:10;;;;;;;16.85;10.45;;;7.50;99.90;;;;;;5023597;28;20086;-79
2022/04/12 00:27:37;;;;;;;14.88;9.55;;;7.60;99.90;;;;;;5039992;28;20057;-79
2022/04/12 00:30:08;;;;;;;19.10;10.00;;;7.40;99.90;;;;;;5039433;28;20521;-78
2022/04/12 00:32:35;;;;;;;15.13;10.07;;;7.40;99.90;;;;;;5039456;28;20063;-78
2022/04/12 00:35:02;;;;;;;13.60;10.07;;;7.40;99.90;;;;;;5038985;28;20443;-79
2022/04/12 00:37:30;;;;;;;13.30;9.48;;;7.40;99.90;;;;;;5039524;28;20535;-78
2022/04/12 00:39:56;;;;;;;12.35;9.98;;;7.40;99.90;;;;;;5056807;28;20072;-79
2022/04/12 00:42:22;;;;;;;15.85;9.68;;;7.40;99.90;;;;;;5022880;28;20044;-78
2022/04/12 00:44:48;;;;;;;16.90;10.60;;;7.30;99.90;;;;;;5039009;28;20041;-78
2022/04/12 00:47:14;;;;;;;18.33;10.00;;;7.30;99.90;;;;;;5056669;28;20033;-78
2022/04/12 00:49:41;;;;;;;14.52;10.07;;;7.30;99.90;;;;;;5022416;28;20041;-78
2022/04/12 00:52:10;;;;;;;13.38;10.18;;;7.30;99.90;;;;;;5022988;28;20049;-78
2022/04/12 00:54:37;;;;;;;13.48;9.75;;;7.30;99.90;;;;;;5022828;28;20443;-78
2022/04/12 00:57:04;;;;;;;17.45;10.05;;;7.20;99.90;;;;;;5022690;28;20114;-79
2022/04/12 00:59:34;;;;;;;14.85;10.27;;;7.20;99.90;;;;;;5056434;28;20060;-79
2022/04/12 01:02:04;;;;;;;15.35;9.60;;;7.20;99.90;;;;;;5056671;28;20052;-79
2022/04/12 01:04:32;;;;;;;15.38;11.02;;;7.20;99.90;;;;;;5019291;28;20045;-79
2022/04/12 01:06:59;;;;;;;21.30;9.93;;;7.20;99.90;;;;;;5022527;28;20434;-78
2022/04/12 01:09:28;;;;;;;12.68;9.73;;;7.20;99.90;;;;;;5038776;28;20409;-78
2022/04/12 01:11:55;;;;;;;18.35;10.52;;;7.10;99.90;;;;;;5039005;28;20055;-79
2022/04/12 01:14:22;;;;;;;15.93;9.60;;;7.10;99.90;;;;;;5022501;28;20432;-78
2022/04/12 01:16:52;;;;;;;16.30;9.63;;;7.10;99.90;;;;;;5037715;28;20087;-78
2022/04/12 01:19:18;;;;;;;17.27;11.00;;;7.00;99.90;;;;;;5038121;28;20084;-79
2022/04/12 01:22:11;;;;;;;11.00;9.35;;;7.00;99.90;;;;;;5021618;28;20060;-79
2022/04/12 01:24:39;;;;;;;15.45;9.70;;;7.00;99.90;;;;;;5037980;28;20087;-78
2022/04/12 01:27:15;;;;;;;13.65;10.07;;;6.90;99.90;;;;;;5022216;28;20045;-78
2022/04/12 01:29:54;;;;;;;;;;;;;;;;;;;;;
2022/04/12 01:32:27;;;;;;;17.40;9.50;;;6.90;99.90;;;;;;5038173;28;20071;-78
2022/04/12 01:34:54;;;;;;;12.90;9.65;;;7.00;99.90;;;;;;5038289;28;20072;-78
2022/04/12 01:37:20;;;;;;;16.02;9.98;;;6.90;99.90;;;;;;5038685;28;20043;-77
2022/04/12 01:39:45;;;;;;;14.90;10.32;;;6.90;99.90;;;;;;5055887;28;20037;-78
2022/04/12 01:42:11;;;;;;;14.18;10.27;;;6.90;99.90;;;;;;5038293;28;20450;-78
2022/04/12 01:44:37;;;;;;;13.75;9.50;;;6.90;99.90;;;;;;5021582;28;20136;-78
2022/04/12 01:47:05;;;;;;;16.10;10.10;;;6.90;99.90;;;;;;5021774;28;20029;-79
2022/04/12 01:49:31;;;;;;;16.88;10.82;;;6.90;99.90;;;;;;5054969;28;20451;-78
2022/04/12 01:52:01;;;;;;;14.05;9.98;;;6.90;99.90;;;;;;5038267;28;20071;-78
2022/04/12 01:54:27;;;;;;;13.60;9.25;;;6.90;99.90;;;;;;5055310;28;20136;-78
2022/04/12 01:56:53;;;;;;;22.98;10.65;;;6.90;99.90;;;;;;5055393;28;20045;-78
2022/04/12 01:59:22;;;;;;;13.38;10.15;;;6.90;99.90;;;;;;5022088;28;20056;-78
2022/04/12 02:01:50;;;;;;;15.27;10.50;;;6.80;99.90;;;;;;5020991;28;20087;-78
2022/04/12 02:04:24;;;;;;;12.77;9.55;;;6.80;99.90;;;;;;5020158;28;20060;-78
2022/04/12 02:06:50;;;;;;;12.50;9.93;;;6.80;99.90;;;;;;5021921;28;20044;-78
2022/04/12 02:09:15;;;;;;;14.30;9.77;;;6.80;99.90;;;;;;5021734;28;20102;-78
2022/04/12 02:11:41;;;;;;;14.70;10.35;;;6.70;99.90;;;;;;5022682;28;20386;-78
2022/04/12 02:14:07;;;;;;;15.43;11.05;;;6.70;99.90;;;;;;5056007;28;20451;-78
2022/04/12 02:16:36;;;;;;;14.95;10.13;;;6.80;99.90;;;;;;5039680;28;20362;-78
2022/04/12 02:22:09;;;;;;;19.80;11.02;;;6.80;99.90;;;;;;5045079;28;20037;-78
2022/04/12 02:24:40;;;;;;;15.73;10.70;;;6.70;99.90;;;;;;5040224;28;20063;-78
2022/04/12 02:27:06;;;;;;;17.38;11.40;;;6.80;99.90;;;;;;5022531;28;20051;-78
2022/04/12 02:29:31;;;;;;;17.00;11.00;;;6.80;99.90;;;;;;5021750;28;20057;-78
2022/04/12 02:31:57;;;;;;;13.93;10.27;;;6.70;99.90;;;;;;5037799;28;20045;-77
2022/04/12 02:34:23;;;;;;;13.63;10.57;;;6.80;99.90;;;;;;5022540;28;20068;-78
2022/04/12 02:36:49;;;;;;;15.05;11.02;;;6.90;99.90;;;;;;5018975;28;20040;-78
2022/04/12 02:39:16;;;;;;;19.52;10.75;;;6.80;99.90;;;;;;5039628;28;20040;-77
2022/04/12 02:41:44;;;;;;;15.52;11.73;;;6.80;99.90;;;;;;5022973;28;20084;-79
2022/04/12 02:44:12;;;;;;;19.27;11.82;;;6.80;99.90;;;;;;5005097;28;20398;-78
2022/04/12 02:46:41;;;;;;;15.98;10.65;;;6.80;99.90;;;;;;5039024;28;20132;-78
2022/04/12 02:49:07;;;;;;;15.13;10.50;;;6.80;99.90;;;;;;5036055;28;20052;-78
2022/04/12 02:51:45;;;;;;;14.82;11.48;;;6.80;99.90;;;;;;5022230;28;20080;-78
2022/04/12 02:54:16;;;;;;;20.25;12.10;;;6.80;99.90;;;;;;5037672;28;20443;-78
2022/04/12 02:56:44;;;;;;;18.20;10.65;;;6.80;99.90;;;;;;5037611;28;20045;-77
2022/04/12 02:59:10;;;;;;;14.23;11.13;;;6.80;99.90;;;;;;5037303;28;20063;-78
2022/04/12 03:01:36;;;;;;;17.50;11.35;;;6.70;99.90;;;;;;5021245;28;20041;-78
2022/04/12 03:04:02;;;;;;;15.52;11.65;;;6.70;99.90;;;;;;5037354;28;20037;-78
2022/04/12 03:06:30;;;;;;;15.45;10.55;;;6.80;99.90;;;;;;5036978;28;20033;-78
2022/04/12 03:08:56;;;;;;;14.25;11.60;;;6.80;99.90;;;;;;5020072;28;20518;-78
2022/04/12 03:11:21;;;;;;;18.00;10.75;;;6.70;99.90;;;;;;5054869;28;20100;-78
2022/04/12 03:13:52;;;;;;;19.20;11.48;;;6.80;99.90;;;;;;5020500;28;20037;-78
2022/04/12 03:16:18;;;;;;;17.58;11.18;;;6.80;99.90;;;;;;5037473;28;20335;-78
2022/04/12 03:18:46;;;;;;;15.32;11.15;;;6.70;99.90;;;;;;5021155;28;20079;-78
2022/04/12 03:21:12;;;;;;;16.20;11.63;;;6.80;99.90;;;;;;5020870;28;20033;-78
2022/04/12 03:23:38;;;;;;;17.17;11.35;;;6.70;99.90;;;;;;5020661;28;20114;-78
2022/04/12 03:26:06;;;;;;;14.30;11.40;;;6.70;99.90;;;;;;5020648;28;20047;-77
2022/04/12 03:28:33;;;;;;;20.05;11.90;;;6.70;99.90;;;;;;5020947;28;20041;-77
2022/04/12 03:31:01;;;;;;;14.80;11.25;;;6.70;99.90;;;;;;5020451;28;20048;-79
2022/04/12 03:33:29;;;;;;;16.92;11.93;;;6.70;99.90;;;;;;5020743;28;20045;-78
2022/04/12 03:35:55;;;;;;;16.27;11.68;;;6.70;99.90;;;;;;5051284;28;20044;-78
2022/04/12 03:38:21;;;;;;;17.23;12.95;;;6.70;99.90;;;;;;5020604;28;20037;-78
2022/04/12 03:40:47;;;;;;;15.73;11.55;;;6.80;99.90;;;;;;5021525;28;20063;-78
2022/04/12 03:43:21;;;;;;;20.13;12.88;;;6.70;99.90;;;;;;5040723;28;20053;-78
2022/04/12 03:46:02;;;;;;;15.93;12.25;;;6.80;99.90;;;;;;5039439;28;20135;-78
2022/04/12 03:48:31;;;;;;;17.73;11.73;;;6.80;99.90;;;;;;5039642;28;20044;-78
2022/04/12 03:50:58;;;;;;;18.77;11.90;;;6.80;99.90;;;;;;5022996;28;20052;-78
2022/04/12 03:53:26;;;;;;;16.90;13.00;;;6.80;99.90;;;;;;5040249;28;20102;-78
2022/04/12 03:56:05;;;;;;;15.65;12.00;;;6.80;99.90;;;;;;5040134;28;20037;-78
2022/04/12 03:58:49;;;;;;;17.30;12.80;;;6.80;99.90;;;;;;5022648;28;20052;-79
2022/04/12 04:01:27;;;;;;;16.20;12.60;;;6.80;99.90;;;;;;5038496;28;20167;-78
2022/04/12 04:04:27;;;;;;;26.30;18.25;;;6.90;99.90;;;;;;5022243;28;20160;-78
2022/04/12 04:07:00;;;;;;;26.67;16.48;;;6.90;99.90;;;;;;4985442;28;20492;-78
2022/04/12 04:09:48;;;;;;;20.02;14.43;;;6.80;99.90;;;;;;5038861;28;20136;-78
2022/04/12 04:12:16;;;;;;;18.45;12.40;;;6.80;99.90;;;;;;5039814;28;20052;-78
2022/04/12 04:14:51;;;;;;;17.13;13.25;;;6.80;99.90;;;;;;5024022;28;20458;-78
2022/04/12 04:17:25;;;;;;;22.52;12.90;;;6.80;99.90;;;;;;5023437;28;20041;-79
2022/04/12 04:19:51;;;;;;;17.75;12.15;;;6.80;99.90;;;;;;5023106;28;20053;-79
2022/04/12 04:22:17;;;;;;;16.35;12.57;;;6.80;99.90;;;;;;5023279;28;20048;-78
2022/04/12 04:24:43;;;;;;;17.55;12.73;;;6.80;99.90;;;;;;5022640;28;20089;-78
2022/04/12 04:27:10;;;;;;;18.73;13.20;;;6.80;99.90;;;;;;5039525;28;20037;-78
2022/04/12 04:29:36;;;;;;;18.38;12.68;;;6.80;99.90;;;;;;5036634;28;20447;-78
2022/04/12 04:32:04;;;;;;;20.30;12.15;;;6.80;99.90;;;;;;5039162;28;20098;-78
2022/04/12 04:34:32;;;;;;;17.65;13.13;;;6.80;99.90;;;;;;5039187;28;20172;-78
2022/04/12 04:36:57;;;;;;;16.20;13.05;;;6.80;99.90;;;;;;5039056;28;20040;-78
2022/04/12 04:39:26;;;;;;;18.10;13.05;;;6.80;99.90;;;;;;5057196;28;20331;-78
2022/04/12 04:41:52;;;;;;;16.58;12.90;;;6.80;99.90;;;;;;5039558;28;20028;-78
2022/04/12 04:44:22;;;;;;;19.48;13.15;;;6.80;99.90;;;;;;5056579;28;20128;-78
2022/04/12 04:46:47;;;;;;;16.05;12.60;;;6.80;99.90;;;;;;5022918;28;20048;-79
2022/04/12 04:49:13;;;;;;;17.30;13.00;;;6.80;99.90;;;;;;5038790;28;20041;-78
2022/04/12 04:51:44;;;;;;;20.65;13.15;;;6.80;99.90;;;;;;5056312;28;20047;-79
2022/04/12 04:54:14;;;;;;;23.40;13.85;;;6.80;99.90;;;;;;5056369;28;20041;-78
2022/04/12 04:56:40;;;;;;;18.08;14.45;;;6.80;99.90;;;;;;5022538;28;20053;-79
2022/04/12 04:59:11;;;;;;;17.52;14.15;;;6.80;99.90;;;;;;5056398;28;20033;-78
2022/04/12 05:01:40;;;;;;;22.92;14.98;;;6.80;99.90;;;;;;5056072;28;20056;-78
2022/04/12 05:04:05;;;;;;;19.38;13.68;;;6.80;99.90;;;;;;5038689;28;20033;-78
2022/04/12 05:06:31;;;;;;;19.48;12.48;;;6.80;99.90;;;;;;5022082;28;20056;-79
2022/04/12 05:08:57;;;;;;;16.15;12.85;;;6.80;99.90;;;;;;5038479;28;20370;-81
2022/04/12 05:12:08;;;;;;;16.88;12.63;;;6.80;99.90;;;;;;5022844;28;20045;-80
2022/04/12 05:15:03;;;;;;;16.35;12.75;;;6.80;99.90;;;;;;5038849;28;20049;-79
2022/04/12 05:17:29;;;;;;;18.05;13.40;;;6.80;99.90;;;;;;5018689;28;20053;-78
2022/04/12 05:19:58;;;;;;;20.83;14.48;;;6.80;99.90;;;;;;5036298;28;20119;-78
2022/04/12 05:22:24;;;;;;;18.75;13.25;;;6.80;99.90;;;;;;5002056;28;20124;-80
2022/04/12 05:24:50;;;;;;;17.40;13.70;;;6.90;99.90;;;;;;5018761;28;20041;-80
2022/04/12 05:27:16;;;;;;;16.75;12.77;;;6.90;99.90;;;;;;5036073;28;20091;-78
2022/04/12 05:29:43;;;;;;;18.67;13.48;;;6.90;99.90;;;;;;5037849;28;20037;-82
2022/04/12 05:32:09;;;;;;;18.40;13.18;;;6.90;99.90;;;;;;5055721;28;20455;-79
2022/04/12 05:34:39;;;;;;;20.08;12.57;;;6.90;99.90;;;;;;5056208;28;20048;-79
2022/04/12 05:37:04;;;;;;;17.38;12.90;;;7.00;99.90;;;;;;5038264;28;20049;-77
2022/04/12 05:39:31;;;;;;;18.00;12.40;;;7.00;99.90;;;;;;5019080;28;20040;-79
2022/04/12 05:58:55;;;;;;;;;;;;;;;;;;;;;
2022/04/12 06:10:11;;;;;;;17.65;13.23;;;7.30;99.90;;;;;;4874524;29;20139;-79
2022/04/12 06:29:33;;;;;;;;;;;;;;;;;;;;;
2022/04/12 06:49:31;;;;;;;17.88;12.45;;;7.70;99.90;;;;;;4845036;29;20064;-79
2022/04/12 06:57:26;;;;;;;16.80;12.57;;;7.80;99.90;;;;;;4897226;29;20048;-79
2022/04/12 07:08:29;;;;;;;;;;;;;;;;;;;;;
2022/04/12 07:19:18;;;;;;;20.20;14.02;;;8.40;99.90;;;;;;4788705;29;20047;-78
2022/04/12 07:26:18;;;;;;;;;;;;;;;;;;;;;
2022/04/12 07:30:00;;;;;;;;;;;;;;;;;;;;;
2022/04/12 07:37:55;;;;;;;19.75;13.02;;;8.60;99.90;;;;;;4883729;29;20048;-78
2022/04/12 07:48:48;;;;;;;14.50;11.93;;;9.10;99.90;;;;;;4870441;29;20052;-79
2022/04/12 07:51:41;;;;;;;16.55;12.95;;;9.40;99.90;;;;;;4900980;29;20052;-78
2022/04/12 07:54:36;;;;;;;16.55;13.15;;;9.40;99.90;;;;;;4954174;28;20046;-78
2022/04/12 07:57:44;;;;;;;;;;;;;;;;;;;;;
2022/04/12 08:03:37;;;;;;;16.13;12.23;;;9.60;99.90;;;;;;4939963;29;20043;-78
2022/04/12 08:06:38;;;;;;;16.90;11.75;;;9.80;99.90;;;;;;5002402;28;20538;-78
2022/04/12 08:09:12;;;;;;;17.35;11.70;;;9.90;99.90;;;;;;5010312;28;20045;-78
2022/04/12 08:11:40;;;;;;;17.70;12.63;;;10.10;99.90;;;;;;5036609;28;20471;-78
2022/04/12 08:14:21;;;;;;;;;;;;;;;;;;;;;
2022/04/12 08:17:33;;;;;;;14.35;11.80;;;10.20;99.90;;;;;;5035572;28;20547;-78
2022/04/12 08:20:13;;;;;;;17.65;12.80;;;10.20;99.90;;;;;;5021436;28;20045;-78
2022/04/12 08:22:52;;;;;;;17.85;12.73;;;10.30;99.90;;;;;;5020715;28;20036;-78
2022/04/12 08:25:32;;;;;;;16.42;12.00;;;10.40;99.90;;;;;;5019398;28;20037;-78
2022/04/12 08:28:14;;;;;;;15.02;11.32;;;10.50;99.90;;;;;;5004122;28;20033;-79
2022/04/12 08:30:48;;;;;;;17.27;11.60;;;10.60;99.90;;;;;;5020192;28;20034;-78
2022/04/12 08:33:16;;;;;;;17.40;12.95;;;10.60;99.90;;;;;;5037002;28;20142;-78
2022/04/12 08:35:46;;;;;;;17.52;11.45;;;10.70;99.90;;;;;;5019596;28;20366;-78
2022/04/12 08:38:17;;;;;;;14.57;11.73;;;10.70;99.90;;;;;;5037408;28;20048;-78
2022/04/12 08:40:43;;;;;;;17.38;12.85;;;10.80;99.90;;;;;;5003249;28;20041;-78
2022/04/12 08:43:14;;;;;;;15.65;11.90;;;10.80;99.90;;;;;;5019212;28;20135;-78
2022/04/12 08:45:48;;;;;;;16.30;11.90;;;10.80;99.90;;;;;;5019563;28;20095;-78
2022/04/12 08:48:20;;;;;;;16.10;11.55;;;10.90;99.90;;;;;;5003013;28;20052;-78
2022/04/12 08:50:49;;;;;;;16.02;12.57;;;10.90;99.90;;;;;;5002577;28;20440;-79
2022/04/12 08:53:18;;;;;;;16.58;12.35;;;11.00;99.90;;;;;;5019516;28;20098;-79
2022/04/12 08:55:54;;;;;;;15.40;11.75;;;11.10;99.90;;;;;;5020234;28;20041;-78
2022/04/12 08:58:29;;;;;;;13.98;11.40;;;11.00;99.90;;;;;;5018806;28;20073;-78
2022/04/12 09:00:55;;;;;;;;;;;11.20;99.90;;;;;;5003255;28;20099;-79
2022/04/12 09:03:29;;;;;;;16.27;11.27;;;11.20;99.90;;;;;;5019781;28;20245;-79
2022/04/12 09:06:02;;;;;;;17.83;13.10;;;11.30;99.90;;;;;;5018070;28;20045;-79
2022/04/12 09:08:32;;;;;;;13.23;11.15;;;11.40;99.90;;;;;;5019668;28;20120;-78
2022/04/12 09:11:08;;;;;;;16.65;11.27;;;11.50;99.90;;;;;;5018040;28;20129;-79
2022/04/12 09:13:35;;;;;;;14.60;11.00;;;11.50;99.90;;;;;;5036631;28;20029;-79
2022/04/12 09:16:06;;;;;;;17.50;11.70;;;11.60;99.90;;;;;;5002004;28;20132;-79
2022/04/12 09:18:41;;;;;;;14.05;11.30;;;11.70;99.90;;;;;;5002686;28;20329;-79
2022/04/12 09:21:18;;;;;;;16.30;12.55;;;11.90;99.90;;;;;;5018687;28;20114;-78
2022/04/12 09:23:55;;;;;;;13.10;11.20;;;11.90;99.90;;;;;;5018601;28;20052;-78
2022/04/12 09:26:31;;;;;;;15.30;12.13;;;11.90;99.90;;;;;;5019170;28;20339;-78
2022/04/12 09:29:00;;;;;;;14.68;11.65;;;12.00;99.90;;;;;;5002787;28;20464;-79
2022/04/12 09:31:28;;;;;;;17.65;11.93;;;12.10;99.90;;;;;;5019160;28;20050;-79
2022/04/12 09:33:54;;;;;;;19.50;12.30;;;12.20;99.90;;;;;;5002062;28;20037;-79
2022/04/12 09:36:21;;;;;;;18.17;11.98;;;12.30;99.90;;;;;;5018799;28;20041;-78
2022/04/12 09:38:54;;;;;;;14.57;11.82;;;12.30;99.90;;;;;;5018034;28;20363;-78
2022/04/12 09:41:25;;;;;;;18.10;11.88;;;12.40;99.90;;;;;;5018000;28;20435;-78
2022/04/12 09:44:11;;;;;;;14.60;11.13;;;12.50;99.90;;;;;;5018540;28;20037;-78
2022/04/12 09:46:38;;;;;;;12.80;10.38;;;12.70;99.90;;;;;;5002061;28;20040;-78
2022/04/12 09:49:06;;;;;;;13.60;11.27;;;12.80;99.90;;;;;;5007890;28;20041;-78
2022/04/12 09:51:36;;;;;;;15.32;11.52;;;12.90;99.90;;;;;;5038249;28;20051;-78
2022/04/12 09:54:09;;;;;;;17.33;11.05;;;13.10;99.90;;;;;;5021930;28;20079;-78
2022/04/12 09:56:39;;;;;;;16.17;11.02;;;13.30;99.90;;;;;;5054901;28;20041;-78
2022/04/12 09:59:08;;;;;;;13.65;11.05;;;13.40;99.90;;;;;;5055683;28;20041;-78
2022/04/12 10:01:39;;;;;;;14.50;11.23;;;13.40;99.90;;;;;;5038154;28;20044;-78
2022/04/12 10:04:09;;;;;;;14.93;12.13;;;13.60;99.90;;;;;;5055466;28;20033;-78
2022/04/12 10:06:40;;;;;;;15.23;11.23;;;13.70;99.90;;;;;;5062140;28;20041;-78
2022/04/12 10:09:07;;;;;;;15.35;12.07;;;13.80;99.90;;;;;;5022495;28;20370;-78
2022/04/12 10:11:35;;;;;;;15.98;11.73;;;13.80;99.90;;;;;;5055542;28;20029;-78
2022/04/12 10:14:01;;;;;;;16.50;11.57;;;13.90;99.90;;;;;;5055077;28;20040;-78
2022/04/12 10:16:27;;;;;;;15.25;10.88;;;14.00;99.90;;;;;;5037953;28;20044;-79
2022/04/12 10:18:54;;;;;;;14.38;11.68;;;14.00;99.90;;;;;;5037669;28;20316;-78
2022/04/12 10:21:22;;;;;;;15.73;11.25;;;14.00;99.90;;;;;;5037712;28;20052;-78
2022/04/12 10:23:53;;;;;;;15.43;12.10;;;14.10;99.90;;;;;;5054257;28;20098;-78
2022/04/12 10:26:21;;;;;;;15.23;10.85;;;14.20;99.90;;;;;;5021152;28;20052;-78
2022/04/12 10:28:54;;;;;;;14.45;11.07;;;14.20;99.90;;;;;;5037782;28;20037;-78
2022/04/12 10:31:25;;;;;;;18.23;11.88;;;14.30;99.90;;;;;;5051701;28;20328;-78
2022/04/12 10:34:03;;;;;;;16.05;11.82;;;14.30;99.90;;;;;;5037947;28;20052;-78
2022/04/12 10:36:55;;;;;;;15.68;11.55;;;14.40;99.90;;;;;;5037100;28;20049;-78
2022/04/12 10:39:35;;;;;;;15.07;10.07;;;14.50;99.90;;;;;;5055132;28;20048;-78
2022/04/12 10:42:09;;;;;;;13.25;10.63;;;14.60;99.90;;;;;;5054110;28;20032;-78
2022/04/12 10:44:41;;;;;;;15.75;10.70;;;14.70;99.90;;;;;;5034558;28;20037;-78
2022/04/12 10:47:22;;;;;;;14.43;11.60;;;14.70;99.90;;;;;;5037289;28;20059;-78
2022/04/12 10:49:53;;;;;;;16.55;11.13;;;14.90;99.90;;;;;;5036748;28;20468;-78
2022/04/12 10:52:19;;;;;;;15.98;11.15;;;15.00;99.90;;;;;;5021251;28;20063;-78
2022/04/12 10:54:47;;;;;;;15.43;10.50;;;15.00;99.90;;;;;;5037718;28;20431;-78
2022/04/12 10:57:18;;;;;;;16.50;10.52;;;15.10;99.90;;;;;;5055046;28;20032;-78
2022/04/12 11:00:01;;;;;;;15.15;10.95;;;15.30;99.90;;;;;;5054578;28;20324;-78
2022/04/12 11:02:53;;;;;;;17.15;10.88;;;15.40;99.90;;;;;;5054632;28;20167;-78
2022/04/12 11:05:39;;;;;;;16.33;10.25;;;15.50;99.90;;;;;;5043617;28;20055;-78
2022/04/12 11:08:31;;;;;;;16.52;10.57;;;15.50;99.90;;;;;;5054463;28;20040;-78
2022/04/12 11:10:57;;;;;;;16.63;10.93;;;15.50;99.90;;;;;;5027683;28;20056;-78
2022/04/12 11:13:27;;;;;;;17.17;9.93;;;15.60;99.90;;;;;;5037541;28;20343;-78
2022/04/12 11:16:07;;;;;;;14.80;10.45;;;15.70;99.90;;;;;;5054748;28;20447;-78
2022/04/12 11:18:52;;;;;;;15.43;10.18;;;15.70;99.90;;;;;;5055049;28;20029;-78
2022/04/12 11:21:26;;;;;;;14.63;9.30;;;15.80;99.90;;;;;;5054561;28;20037;-78
2022/04/12 11:23:57;;;;;;;13.77;9.93;;;16.00;99.90;;;;;;5054509;28;20072;-78
2022/04/12 11:26:37;;;;;;;13.55;9.98;;;16.00;99.90;;;;;;5036990;28;20106;-78
2022/04/12 11:29:13;;;;;;;16.70;10.68;;;16.10;99.90;;;;;;5054949;28;20037;-78
2022/04/12 11:31:43;;;;;;;14.02;9.68;;;16.10;99.90;;;;;;5054702;28;20029;-78
2022/04/12 11:34:09;;;;;;;16.33;9.57;;;16.20;99.90;;;;;;5036875;28;20040;-78
2022/04/12 11:36:36;;;;;;;19.55;9.88;;;16.30;99.90;;;;;;5054250;28;20052;-78
2022/04/12 11:39:02;;;;;;;14.57;9.93;;;16.40;99.90;;;;;;5036677;28;20123;-78
2022/04/12 11:41:29;;;;;;;14.68;10.05;;;16.50;99.90;;;;;;5054686;28;20098;-78
2022/04/12 11:44:01;;;;;;;14.07;9.55;;;16.60;99.90;;;;;;5019993;28;20447;-78
2022/04/12 11:46:30;;;;;;;12.48;8.35;;;16.70;99.90;;;;;;5054127;28;20037;-78
2022/04/12 11:49:10;;;;;;;16.65;10.48;;;16.80;99.90;;;;;;5038026;28;20045;-78
2022/04/12 11:51:41;;;;;;;13.25;10.25;;;16.80;99.90;;;;;;5041947;28;20036;-78
2022/04/12 11:54:28;;;;;;;14.90;10.60;;;16.80;99.90;;;;;;5026487;28;20048;-78
2022/04/12 11:57:08;;;;;;;14.10;10.40;;;16.90;99.90;;;;;;5043627;28;20045;-78
2022/04/12 11:59:48;;;;;;;14.07;9.82;;;17.00;99.90;;;;;;5061123;28;20040;-78
2022/04/12 12:02:15;;;;;;;13.32;10.13;;;17.10;99.90;;;;;;5045898;28;20044;-78
2022/04/12 12:04:49;;;;;;;13.05;9.75;;;17.00;99.90;;;;;;5064687;28;20036;-78
2022/04/12 12:07:15;;;;;;;13.93;9.73;;;17.10;99.90;;;;;;5030010;28;20097;-78
2022/04/12 12:09:56;;;;;;;12.35;10.27;;;17.10;99.90;;;;;;5030265;28;20094;-77
2022/04/12 12:12:34;;;;;;;14.40;10.75;;;17.20;99.90;;;;;;5047461;28;20343;-78
2022/04/12 12:15:21;;;;;;;13.27;10.30;;;17.10;99.90;;;;;;5046654;28;20052;-78
2022/04/12 12:17:48;;;;;;;17.38;10.68;;;17.20;99.90;;;;;;5046617;28;20071;-78
2022/04/12 12:20:17;;;;;;;13.55;10.15;;;17.20;99.90;;;;;;5063507;28;20049;-78
2022/04/12 12:22:44;;;;;;;14.32;9.88;;;17.30;99.90;;;;;;5045283;28;20041;-78
2022/04/12 12:25:13;;;;;;;12.25;9.40;;;17.30;99.90;;;;;;5045080;28;20041;-78
2022/04/12 12:27:41;;;;;;;13.07;10.07;;;17.30;99.90;;;;;;5041250;28;20029;-78
2022/04/12 12:30:15;;;;;;;10.93;8.63;;;17.10;99.90;;;;;;5057359;28;20028;-78
2022/04/12 12:32:42;;;;;;;15.75;9.73;;;17.10;99.90;;;;;;5040600;28;20121;-78
2022/04/12 12:35:12;;;;;;;12.90;9.13;;;17.20;99.90;;;;;;5057552;28;20107;-78
2022/04/12 12:37:40;;;;;;;16.58;9.07;;;17.20;99.90;;;;;;5023204;28;20036;-78
2022/04/12 12:40:23;;;;;;;12.48;9.63;;;17.20;99.90;;;;;;5057367;28;20040;-78
2022/04/12 12:42:50;;;;;;;13.52;10.27;;;17.10;99.90;;;;;;5057135;28;20043;-78
2022/04/12 12:45:18;;;;;;;13.32;9.02;;;17.20;99.90;;;;;;5039280;28;20458;-78
2022/04/12 12:47:46;;;;;;;13.52;9.07;;;17.10;99.90;;;;;;5039977;28;20079;-78
2022/04/12 12:50:14;;;;;;;13.43;8.88;;;17.00;99.90;;;;;;5038942;28;20522;-78
2022/04/12 12:52:41;;;;;;;13.85;9.88;;;17.00;99.90;;;;;;5056701;28;20106;-78
2022/04/12 12:55:34;;;;;;;13.95;9.77;;;16.90;99.90;;;;;;5053358;28;20044;-78
2022/04/12 12:58:20;;;;;;;13.40;10.00;;;16.90;99.90;;;;;;5052463;28;20052;-78
2022/04/12 13:00:46;;;;;;;16.00;11.18;;;16.90;99.90;;;;;;5036370;28;20459;-78
2022/04/12 13:03:14;;;;;;;12.93;10.07;;;16.90;99.90;;;;;;5056909;28;20037;-78
2022/04/12 13:05:53;;;;;;;17.42;9.52;;;16.90;99.90;;;;;;5038388;28;20045;-78
2022/04/12 13:08:23;;;;;;;13.48;9.70;;;17.00;99.90;;;;;;5056507;28;20230;-78
2022/04/12 13:10:49;;;;;;;12.32;9.15;;;17.20;99.90;;;;;;5039266;28;20120;-78
2022/04/12 13:13:14;;;;;;;13.35;10.40;;;17.40;99.90;;;;;;5037963;28;20063;-78
2022/04/12 13:15:40;;;;;;;15.63;10.38;;;17.60;99.90;;;;;;5056935;28;20041;-78
2022/04/12 13:18:05;;;;;;;13.10;10.35;;;18.00;99.90;;;;;;5056456;28;20128;-79
2022/04/12 13:20:31;;;;;;;16.60;10.40;;;18.50;99.90;;;;;;5039335;28;20128;-79
2022/04/12 13:22:56;;;;;;;17.10;11.50;;;19.00;99.90;;;;;;5022712;28;20049;-77
2022/04/12 13:25:22;;;;;;;14.30;10.23;;;19.40;99.90;;;;;;5056245;28;20033;-77
2022/04/12 13:27:50;;;;;;;13.50;9.85;;;20.10;99.90;;;;;;5038199;28;20438;-77
2022/04/12 13:30:17;;;;;;;12.82;9.70;;;20.50;99.90;;;;;;5038878;28;20052;-77
2022/04/12 13:32:43;;;;;;;15.40;10.18;;;21.10;99.90;;;;;;5038319;28;20045;-77
2022/04/12 13:35:10;;;;;;;16.98;10.50;;;21.70;99.90;;;;;;5056015;28;20155;-77
2022/04/12 13:37:36;;;;;;;16.25;10.57;;;22.40;98.60;;;;;;5036290;28;20088;-77
2022/04/12 13:40:04;;;;;;;17.10;11.27;;;22.80;98.50;;;;;;5036244;28;20387;-77
2022/04/12 13:42:29;;;;;;;11.60;9.27;;;23.30;97.20;;;;;;5019064;28;20443;-77
2022/04/12 13:44:55;;;;;;;13.40;10.48;;;23.80;96.00;;;;;;5035979;28;20033;-78
2022/04/12 13:47:21;;;;;;;13.95;10.88;;;24.10;94.90;;;;;;5035850;28;20025;-77
2022/04/12 13:49:46;;;;;;;12.98;10.43;;;23.70;94.00;;;;;;5035564;28;20053;-77
2022/04/12 13:52:12;;;;;;;15.15;10.90;;;23.90;94.60;;;;;;5054473;28;20067;-77
2022/04/12 13:54:37;;;;;;;16.30;11.27;;;23.80;93.50;;;;;;5038429;28;20037;-77
2022/04/12 13:57:03;;;;;;;12.15;10.82;;;24.00;93.00;;;;;;5055413;28;20044;-77
2022/04/12 13:59:29;;;;;;;14.13;10.52;;;24.70;92.80;;;;;;5055555;28;20396;-77
2022/04/12 14:01:55;;;;;;;16.75;11.10;;;24.90;92.40;;;;;;5037567;28;20029;-77
2022/04/12 14:04:22;;;;;;;17.60;10.95;;;25.10;91.70;;;;;;5037766;28;20037;-77
2022/04/12 14:06:48;;;;;;;12.98;10.32;;;25.50;90.80;;;;;;5037675;28;20041;-77
2022/04/12 14:09:15;;;;;;;15.15;11.52;;;25.70;89.50;;;;;;5021527;28;20033;-77
2022/04/12 14:11:44;;;;;;;13.98;12.05;;;25.30;85.90;;;;;;5037447;28;20032;-78
2022/04/12 14:14:14;;;;;;;15.13;11.45;;;25.50;86.20;;;;;;5055277;28;20047;-77
2022/04/12 14:16:40;;;;;;;16.67;11.10;;;25.40;85.50;;;;;;5037633;28;20056;-77
2022/04/12 14:19:06;;;;;;;15.18;12.00;;;25.70;87.30;;;;;;5055424;28;20069;-77
2022/04/12 14:21:31;;;;;;;16.13;11.15;;;25.30;86.20;;;;;;5055072;28;20516;-77
2022/04/12 14:23:57;;;;;;;15.43;10.68;;;25.10;86.90;;;;;;5054808;28;20496;-77
2022/04/12 14:26:23;;;;;;;13.70;11.10;;;25.20;87.80;;;;;;5036955;28;20040;-77
2022/04/12 14:28:48;;;;;;;18.27;11.70;;;24.90;87.30;;;;;;5037346;28;20365;-78
2022/04/12 14:31:14;;;;;;;13.23;10.68;;;24.20;86.30;;;;;;5053132;28;20032;-77
2022/04/12 14:33:39;;;;;;;16.60;12.20;;;23.90;88.90;;;;;;5055201;28;20130;-77
2022/04/12 14:36:08;;;;;;;16.73;12.68;;;23.60;90.00;;;;;;5055319;28;20455;-77
2022/04/12 14:38:35;;;;;;;15.23;11.45;;;23.10;90.70;;;;;;5054848;28;20095;-77
2022/04/12 14:41:01;;;;;;;16.35;11.68;;;23.30;91.20;;;;;;5054578;28;20449;-77
2022/04/12 14:43:26;;;;;;;15.18;12.88;;;23.60;91.20;;;;;;5055010;28;20040;-77
2022/04/12 14:45:53;;;;;;;13.98;12.05;;;23.30;90.30;;;;;;5036978;28;20045;-76
2022/04/12 14:48:19;;;;;;;15.57;11.70;;;23.40;90.50;;;;;;5037362;28;20335;-77
2022/04/12 14:50:47;;;;;;;14.30;11.07;;;23.40;90.80;;;;;;5054743;28;20095;-77